sensor_id;sensor_type;location;lat;lon;timestamp;temperature;humidity
2030;DHT22;1020;48.854;8.830;2023-07-08T00:01:58;20.40;99.90
2030;DHT22;1020;48.854;8.830;2023-07-08T00:04:25;20.30;99.90
2030;DHT22;1020;48.854;8.830;2023-07-08T00:06:53;20.20;99.90
2030;DHT22;1020;48.854;8.830;2023-07-08T00:09:20;20.30;99.90
2030;DHT22;1020;48.854;8.830;2023-07-08T00:11:47;20.30;99.90
2030;DHT22;1020;48.854;8.830;2023-07-08T00:14:14;20.30;99.90
2030;DHT22;1020;48.854;8.830;2023-07-08T00:16:40;20.30;99.90
2030;DHT22;1020;48.854;8.830;2023-07-08T00:19:10;20.20;99.90
2030;DHT22;1020;48.854;8.830;2023-07-08T00:21:37;20.20;99.90
2030;DHT22;1020;48.854;8.830;2023-07-08T00:24:05;20.10;99.90
2030;DHT22;1020;48.854;8.830;2023-07-08T00:26:32;20.10;99.90
2030;DHT22;1020;48.854;8.830;2023-07-08T00:28:59;20.00;99.90
2030;DHT22;1020;48.854;8.830;2023-07-08T00:31:26;20.00;99.90
2030;DHT22;1020;48.854;8.830;2023-07-08T00:33:54;20.00;99.90
2030;DHT22;1020;48.854;8.830;2023-07-08T00:36:23;20.00;99.90
2030;DHT22;1020;48.854;8.830;2023-07-08T00:38:50;19.90;99.90
2030;DHT22;1020;48.854;8.830;2023-07-08T00:41:21;20.00;99.90
2030;DHT22;1020;48.854;8.830;2023-07-08T00:43:51;20.00;99.90
2030;DHT22;1020;48.854;8.830;2023-07-08T00:46:29;20.00;99.90
2030;DHT22;1020;48.854;8.830;2023-07-08T00:49:05;20.00;99.90
2030;DHT22;1020;48.854;8.830;2023-07-08T00:51:38;20.00;99.90
2030;DHT22;1020;48.854;8.830;2023-07-08T00:54:05;20.00;99.90
2030;DHT22;1020;48.854;8.830;2023-07-08T00:56:35;20.00;99.90
2030;DHT22;1020;48.854;8.830;2023-07-08T00:59:05;19.90;99.90
2030;DHT22;1020;48.854;8.830;2023-07-08T01:01:40;19.90;99.90
2030;DHT22;1020;48.854;8.830;2023-07-08T01:04:10;19.80;99.90
2030;DHT22;1020;48.854;8.830;2023-07-08T01:06:40;19.80;99.90
2030;DHT22;1020;48.854;8.830;2023-07-08T01:09:09;19.80;99.90
2030;DHT22;1020;48.854;8.830;2023-07-08T01:11:40;19.80;99.90
2030;DHT22;1020;48.854;8.830;2023-07-08T01:14:08;19.70;99.90
2030;DHT22;1020;48.854;8.830;2023-07-08T01:16:37;19.70;99.90
2030;DHT22;1020;48.854;8.830;2023-07-08T01:19:07;19.70;99.90
2030;DHT22;1020;48.854;8.830;2023-07-08T01:21:39;19.70;99.90
2030;DHT22;1020;48.854;8.830;2023-07-08T01:24:09;19.70;99.90
2030;DHT22;1020;48.854;8.830;2023-07-08T01:26:40;19.70;99.90
2030;DHT22;1020;48.854;8.830;2023-07-08T01:29:08;19.80;99.90
2030;DHT22;1020;48.854;8.830;2023-07-08T01:31:34;19.70;99.90
2030;DHT22;1020;48.854;8.830;2023-07-08T01:34:02;19.80;99.90
2030;DHT22;1020;48.854;8.830;2023-07-08T01:36:33;19.80;99.90
2030;DHT22;1020;48.854;8.830;2023-07-08T01:39:00;19.80;99.90
2030;DHT22;1020;48.854;8.830;2023-07-08T01:41:28;19.80;99.90
2030;DHT22;1020;48.854;8.830;2023-07-08T01:43:55;19.80;99.90
2030;DHT22;1020;48.854;8.830;2023-07-08T01:46:23;19.80;99.90
2030;DHT22;1020;48.854;8.830;2023-07-08T01:48:53;19.80;99.90
2030;DHT22;1020;48.854;8.830;2023-07-08T01:51:21;19.70;99.90
2030;DHT22;1020;48.854;8.830;2023-07-08T01:53:49;19.60;99.90
2030;DHT22;1020;48.854;8.830;2023-07-08T01:56:17;19.50;99.90
2030;DHT22;1020;48.854;8.830;2023-07-08T01:58:45;19.40;99.90
2030;DHT22;1020;48.854;8.830;2023-07-08T02:01:12;19.40;99.90
2030;DHT22;1020;48.854;8.830;2023-07-08T02:03:38;19.50;99.90
2030;DHT22;1020;48.854;8.830;2023-07-08T02:06:07;19.50;99.90
2030;DHT22;1020;48.854;8.830;2023-07-08T02:08:33;19.50;99.90
2030;DHT22;1020;48.854;8.830;2023-07-08T02:11:00;19.40;99.90
2030;DHT22;1020;48.854;8.830;2023-07-08T02:13:27;19.50;99.90
2030;DHT22;1020;48.854;8.830;2023-07-08T02:15:55;19.50;99.90
2030;DHT22;1020;48.854;8.830;2023-07-08T02:18:22;19.50;99.90
2030;DHT22;1020;48.854;8.830;2023-07-08T02:20:50;19.50;99.90
2030;DHT22;1020;48.854;8.830;2023-07-08T02:23:17;19.60;99.90
2030;DHT22;1020;48.854;8.830;2023-07-08T02:25:50;19.70;99.90
2030;DHT22;1020;48.854;8.830;2023-07-08T02:28:17;19.80;99.90
2030;DHT22;1020;48.854;8.830;2023-07-08T02:30:44;19.80;99.90
2030;DHT22;1020;48.854;8.830;2023-07-08T02:33:12;19.70;99.90
2030;DHT22;1020;48.854;8.830;2023-07-08T02:35:43;19.80;99.90
2030;DHT22;1020;48.854;8.830;2023-07-08T02:38:10;19.80;99.90
2030;DHT22;1020;48.854;8.830;2023-07-08T02:40:37;19.90;99.90
2030;DHT22;1020;48.854;8.830;2023-07-08T02:43:03;19.90;99.90
2030;DHT22;1020;48.854;8.830;2023-07-08T02:45:31;19.80;99.90
2030;DHT22;1020;48.854;8.830;2023-07-08T02:47:58;19.70;99.90
2030;DHT22;1020;48.854;8.830;2023-07-08T02:50:26;19.60;99.90
2030;DHT22;1020;48.854;8.830;2023-07-08T02:52:52;19.50;99.90
2030;DHT22;1020;48.854;8.830;2023-07-08T02:55:19;19.50;99.90
2030;DHT22;1020;48.854;8.830;2023-07-08T02:57:46;19.50;99.90
2030;DHT22;1020;48.854;8.830;2023-07-08T03:00:13;19.40;99.90
2030;DHT22;1020;48.854;8.830;2023-07-08T03:02:40;19.40;99.90
2030;DHT22;1020;48.854;8.830;2023-07-08T03:05:08;19.30;99.90
2030;DHT22;1020;48.854;8.830;2023-07-08T03:07:36;19.20;99.90
2030;DHT22;1020;48.854;8.830;2023-07-08T03:10:03;19.20;99.90
2030;DHT22;1020;48.854;8.830;2023-07-08T03:12:30;19.00;99.90
2030;DHT22;1020;48.854;8.830;2023-07-08T03:14:57;19.00;99.90
2030;DHT22;1020;48.854;8.830;2023-07-08T03:17:24;19.00;99.90
2030;DHT22;1020;48.854;8.830;2023-07-08T03:19:51;19.00;99.90
2030;DHT22;1020;48.854;8.830;2023-07-08T03:22:17;18.90;99.90
2030;DHT22;1020;48.854;8.830;2023-07-08T03:24:45;18.80;99.90
2030;DHT22;1020;48.854;8.830;2023-07-08T03:27:12;18.80;99.90
2030;DHT22;1020;48.854;8.830;2023-07-08T03:29:39;18.70;99.90
2030;DHT22;1020;48.854;8.830;2023-07-08T03:32:09;18.60;99.90
2030;DHT22;1020;48.854;8.830;2023-07-08T03:34:36;18.60;99.90
2030;DHT22;1020;48.854;8.830;2023-07-08T03:37:03;18.60;99.90
2030;DHT22;1020;48.854;8.830;2023-07-08T03:39:30;18.60;99.90
2030;DHT22;1020;48.854;8.830;2023-07-08T03:41:58;18.70;99.90
2030;DHT22;1020;48.854;8.830;2023-07-08T03:44:25;18.70;99.90
2030;DHT22;1020;48.854;8.830;2023-07-08T03:46:52;18.70;99.90
2030;DHT22;1020;48.854;8.830;2023-07-08T03:49:21;18.70;99.90
2030;DHT22;1020;48.854;8.830;2023-07-08T03:51:50;18.80;99.90
2030;DHT22;1020;48.854;8.830;2023-07-08T03:54:20;18.80;99.90
2030;DHT22;1020;48.854;8.830;2023-07-08T03:56:47;18.90;99.90
2030;DHT22;1020;48.854;8.830;2023-07-08T03:59:15;18.90;99.90
2030;DHT22;1020;48.854;8.830;2023-07-08T04:01:42;18.90;99.90
2030;DHT22;1020;48.854;8.830;2023-07-08T04:04:10;19.00;99.90
2030;DHT22;1020;48.854;8.830;2023-07-08T04:06:38;19.10;99.90
2030;DHT22;1020;48.854;8.830;2023-07-08T04:09:04;18.00;99.90
2030;DHT22;1020;48.854;8.830;2023-07-08T04:11:32;18.90;99.90
2030;DHT22;1020;48.854;8.830;2023-07-08T04:13:59;19.00;99.90
2030;DHT22;1020;48.854;8.830;2023-07-08T04:16:29;19.10;99.90
2030;DHT22;1020;48.854;8.830;2023-07-08T04:18:57;19.10;99.90
2030;DHT22;1020;48.854;8.830;2023-07-08T04:21:25;19.10;99.90
2030;DHT22;1020;48.854;8.830;2023-07-08T04:23:51;19.20;99.90
2030;DHT22;1020;48.854;8.830;2023-07-08T04:26:19;19.30;99.90
2030;DHT22;1020;48.854;8.830;2023-07-08T04:28:46;19.30;99.90
2030;DHT22;1020;48.854;8.830;2023-07-08T04:31:13;19.40;99.90
2030;DHT22;1020;48.854;8.830;2023-07-08T04:33:41;19.50;99.90
2030;DHT22;1020;48.854;8.830;2023-07-08T04:36:12;19.60;99.90
2030;DHT22;1020;48.854;8.830;2023-07-08T04:38:39;19.60;99.90
2030;DHT22;1020;48.854;8.830;2023-07-08T04:41:07;19.70;99.90
2030;DHT22;1020;48.854;8.830;2023-07-08T04:43:34;19.70;99.90
2030;DHT22;1020;48.854;8.830;2023-07-08T04:46:01;19.80;99.90
2030;DHT22;1020;48.854;8.830;2023-07-08T04:48:28;19.80;99.90
2030;DHT22;1020;48.854;8.830;2023-07-08T04:50:56;19.70;99.90
2030;DHT22;1020;48.854;8.830;2023-07-08T04:53:23;19.70;99.90
2030;DHT22;1020;48.854;8.830;2023-07-08T04:55:52;19.70;99.90
2030;DHT22;1020;48.854;8.830;2023-07-08T04:58:19;19.70;99.90
2030;DHT22;1020;48.854;8.830;2023-07-08T05:00:46;19.70;99.90
2030;DHT22;1020;48.854;8.830;2023-07-08T05:03:13;19.60;99.90
2030;DHT22;1020;48.854;8.830;2023-07-08T05:05:40;19.70;99.90
2030;DHT22;1020;48.854;8.830;2023-07-08T05:08:09;19.70;99.90
2030;DHT22;1020;48.854;8.830;2023-07-08T05:10:35;19.70;99.90
2030;DHT22;1020;48.854;8.830;2023-07-08T05:13:03;19.80;99.90
2030;DHT22;1020;48.854;8.830;2023-07-08T05:15:29;19.80;99.90
2030;DHT22;1020;48.854;8.830;2023-07-08T05:17:56;19.80;99.90
2030;DHT22;1020;48.854;8.830;2023-07-08T05:20:23;20.10;99.90
2030;DHT22;1020;48.854;8.830;2023-07-08T05:22:50;20.40;99.90
2030;DHT22;1020;48.854;8.830;2023-07-08T05:25:19;20.70;99.90
2030;DHT22;1020;48.854;8.830;2023-07-08T05:27:46;21.00;99.90
2030;DHT22;1020;48.854;8.830;2023-07-08T05:30:14;21.20;99.90
2030;DHT22;1020;48.854;8.830;2023-07-08T05:32:42;21.50;99.90
2030;DHT22;1020;48.854;8.830;2023-07-08T05:35:08;21.70;99.90
2030;DHT22;1020;48.854;8.830;2023-07-08T05:37:35;21.90;99.90
2030;DHT22;1020;48.854;8.830;2023-07-08T05:40:02;22.10;99.90
2030;DHT22;1020;48.854;8.830;2023-07-08T05:42:31;22.30;99.90
2030;DHT22;1020;48.854;8.830;2023-07-08T05:44:58;22.60;99.90
2030;DHT22;1020;48.854;8.830;2023-07-08T05:47:25;22.70;99.90
2030;DHT22;1020;48.854;8.830;2023-07-08T05:49:52;22.80;99.90
2030;DHT22;1020;48.854;8.830;2023-07-08T05:52:19;22.80;99.90
2030;DHT22;1020;48.854;8.830;2023-07-08T05:54:46;22.90;99.90
2030;DHT22;1020;48.854;8.830;2023-07-08T05:57:12;22.90;99.90
2030;DHT22;1020;48.854;8.830;2023-07-08T05:59:41;23.10;99.90
2030;DHT22;1020;48.854;8.830;2023-07-08T06:02:10;23.30;99.90
2030;DHT22;1020;48.854;8.830;2023-07-08T06:04:37;23.40;99.90
2030;DHT22;1020;48.854;8.830;2023-07-08T06:07:04;23.40;99.90
2030;DHT22;1020;48.854;8.830;2023-07-08T06:09:31;23.40;99.90
2030;DHT22;1020;48.854;8.830;2023-07-08T06:11:58;23.60;99.90
2030;DHT22;1020;48.854;8.830;2023-07-08T06:14:26;23.80;99.90
2030;DHT22;1020;48.854;8.830;2023-07-08T06:16:57;23.90;99.90
2030;DHT22;1020;48.854;8.830;2023-07-08T06:19:24;24.20;99.90
2030;DHT22;1020;48.854;8.830;2023-07-08T06:21:51;24.50;99.90
2030;DHT22;1020;48.854;8.830;2023-07-08T06:24:18;24.70;99.90
2030;DHT22;1020;48.854;8.830;2023-07-08T06:26:45;25.10;99.90
2030;DHT22;1020;48.854;8.830;2023-07-08T06:29:11;25.30;99.90
2030;DHT22;1020;48.854;8.830;2023-07-08T06:31:38;25.70;99.90
2030;DHT22;1020;48.854;8.830;2023-07-08T06:34:06;25.80;99.90
2030;DHT22;1020;48.854;8.830;2023-07-08T06:36:33;26.00;99.90
2030;DHT22;1020;48.854;8.830;2023-07-08T06:39:00;26.10;99.90
2030;DHT22;1020;48.854;8.830;2023-07-08T06:41:27;26.30;99.90
2030;DHT22;1020;48.854;8.830;2023-07-08T06:43:54;26.60;99.90
2030;DHT22;1020;48.854;8.830;2023-07-08T06:46:22;26.80;99.90
2030;DHT22;1020;48.854;8.830;2023-07-08T06:48:49;26.90;99.90
2030;DHT22;1020;48.854;8.830;2023-07-08T06:51:17;26.90;99.90
2030;DHT22;1020;48.854;8.830;2023-07-08T06:53:44;26.80;99.90
2030;DHT22;1020;48.854;8.830;2023-07-08T06:56:10;26.90;99.90
2030;DHT22;1020;48.854;8.830;2023-07-08T06:58:37;26.90;99.90
2030;DHT22;1020;48.854;8.830;2023-07-08T07:01:04;26.90;99.90
2030;DHT22;1020;48.854;8.830;2023-07-08T07:03:31;26.90;99.90
2030;DHT22;1020;48.854;8.830;2023-07-08T07:05:57;27.10;99.90
2030;DHT22;1020;48.854;8.830;2023-07-08T07:08:26;27.20;99.90
2030;DHT22;1020;48.854;8.830;2023-07-08T07:10:52;27.30;99.90
2030;DHT22;1020;48.854;8.830;2023-07-08T07:13:19;27.20;99.90
2030;DHT22;1020;48.854;8.830;2023-07-08T07:15:48;27.40;99.90
2030;DHT22;1020;48.854;8.830;2023-07-08T07:18:14;27.50;99.90
2030;DHT22;1020;48.854;8.830;2023-07-08T07:20:48;27.70;99.90
2030;DHT22;1020;48.854;8.830;2023-07-08T07:23:15;27.70;99.90
2030;DHT22;1020;48.854;8.830;2023-07-08T07:25:44;27.50;99.90
2030;DHT22;1020;48.854;8.830;2023-07-08T07:28:13;27.60;99.90
2030;DHT22;1020;48.854;8.830;2023-07-08T07:30:39;27.80;99.90
2030;DHT22;1020;48.854;8.830;2023-07-08T07:33:06;28.00;99.90
2030;DHT22;1020;48.854;8.830;2023-07-08T07:35:33;28.30;99.90
2030;DHT22;1020;48.854;8.830;2023-07-08T07:37:59;28.40;99.90
2030;DHT22;1020;48.854;8.830;2023-07-08T07:40:26;28.50;99.90
2030;DHT22;1020;48.854;8.830;2023-07-08T07:42:54;28.80;99.90
2030;DHT22;1020;48.854;8.830;2023-07-08T07:45:21;29.50;99.90
2030;DHT22;1020;48.854;8.830;2023-07-08T07:47:48;29.90;99.90
2030;DHT22;1020;48.854;8.830;2023-07-08T07:50:15;30.70;99.90
2030;DHT22;1020;48.854;8.830;2023-07-08T07:52:41;31.90;99.90
2030;DHT22;1020;48.854;8.830;2023-07-08T07:55:08;31.40;99.90
2030;DHT22;1020;48.854;8.830;2023-07-08T07:57:35;31.20;99.90
2030;DHT22;1020;48.854;8.830;2023-07-08T08:00:04;32.30;99.90
2030;DHT22;1020;48.854;8.830;2023-07-08T08:02:31;33.50;99.90
2030;DHT22;1020;48.854;8.830;2023-07-08T08:04:58;34.50;99.90
2030;DHT22;1020;48.854;8.830;2023-07-08T08:07:25;33.70;99.90
2030;DHT22;1020;48.854;8.830;2023-07-08T08:09:52;33.70;99.90
2030;DHT22;1020;48.854;8.830;2023-07-08T08:12:18;34.00;99.90
2030;DHT22;1020;48.854;8.830;2023-07-08T08:14:47;34.20;99.90
2030;DHT22;1020;48.854;8.830;2023-07-08T08:17:15;35.20;99.90
2030;DHT22;1020;48.854;8.830;2023-07-08T08:19:42;35.10;99.90
2030;DHT22;1020;48.854;8.830;2023-07-08T08:22:09;35.10;99.90
2030;DHT22;1020;48.854;8.830;2023-07-08T08:24:36;34.00;99.90
2030;DHT22;1020;48.854;8.830;2023-07-08T08:27:03;34.90;99.90
2030;DHT22;1020;48.854;8.830;2023-07-08T08:31:58;36.90;99.90
2030;DHT22;1020;48.854;8.830;2023-07-08T08:34:26;37.90;99.90
2030;DHT22;1020;48.854;8.830;2023-07-08T08:36:53;38.00;99.90
2030;DHT22;1020;48.854;8.830;2023-07-08T08:39:21;36.60;99.90
2030;DHT22;1020;48.854;8.830;2023-07-08T08:41:50;36.20;99.90
2030;DHT22;1020;48.854;8.830;2023-07-08T08:44:25;35.90;99.90
2030;DHT22;1020;48.854;8.830;2023-07-08T08:46:56;35.60;99.90
2030;DHT22;1020;48.854;8.830;2023-07-08T08:49:30;36.50;99.90
2030;DHT22;1020;48.854;8.830;2023-07-08T08:51:59;38.10;99.90
2030;DHT22;1020;48.854;8.830;2023-07-08T08:54:26;37.90;99.90
2030;DHT22;1020;48.854;8.830;2023-07-08T08:57:00;38.20;99.90
2030;DHT22;1020;48.854;8.830;2023-07-08T08:59:37;38.40;99.90
2030;DHT22;1020;48.854;8.830;2023-07-08T09:02:21;38.80;99.90
2030;DHT22;1020;48.854;8.830;2023-07-08T09:04:51;40.30;99.90
2030;DHT22;1020;48.854;8.830;2023-07-08T09:07:19;38.90;99.90
2030;DHT22;1020;48.854;8.830;2023-07-08T09:09:51;39.70;99.90
2030;DHT22;1020;48.854;8.830;2023-07-08T09:12:24;40.10;99.90
2030;DHT22;1020;48.854;8.830;2023-07-08T09:14:51;40.70;99.90
2030;DHT22;1020;48.854;8.830;2023-07-08T09:17:22;41.40;99.90
2030;DHT22;1020;48.854;8.830;2023-07-08T09:19:57;41.40;99.90
2030;DHT22;1020;48.854;8.830;2023-07-08T09:22:36;41.70;99.90
2030;DHT22;1020;48.854;8.830;2023-07-08T09:25:11;42.50;99.90
2030;DHT22;1020;48.854;8.830;2023-07-08T09:27:42;42.30;99.90
2030;DHT22;1020;48.854;8.830;2023-07-08T09:30:14;41.60;99.90
2030;DHT22;1020;48.854;8.830;2023-07-08T09:32:41;41.30;99.90
2030;DHT22;1020;48.854;8.830;2023-07-08T09:35:18;41.00;99.90
2030;DHT22;1020;48.854;8.830;2023-07-08T09:37:46;40.80;99.90
2030;DHT22;1020;48.854;8.830;2023-07-08T09:40:16;40.90;99.90
2030;DHT22;1020;48.854;8.830;2023-07-08T09:42:46;40.80;99.90
2030;DHT22;1020;48.854;8.830;2023-07-08T09:45:17;40.10;99.90
2030;DHT22;1020;48.854;8.830;2023-07-08T09:47:44;40.10;99.90
2030;DHT22;1020;48.854;8.830;2023-07-08T09:50:21;40.80;99.90
2030;DHT22;1020;48.854;8.830;2023-07-08T09:52:48;40.90;99.90
2030;DHT22;1020;48.854;8.830;2023-07-08T09:55:16;41.70;99.90
2030;DHT22;1020;48.854;8.830;2023-07-08T09:57:44;42.20;99.90
2030;DHT22;1020;48.854;8.830;2023-07-08T10:00:14;41.80;99.90
2030;DHT22;1020;48.854;8.830;2023-07-08T10:02:44;41.80;99.90
2030;DHT22;1020;48.854;8.830;2023-07-08T10:05:25;41.70;99.90
2030;DHT22;1020;48.854;8.830;2023-07-08T10:07:55;41.80;99.90
2030;DHT22;1020;48.854;8.830;2023-07-08T10:10:26;42.00;99.90
2030;DHT22;1020;48.854;8.830;2023-07-08T10:12:57;42.30;99.90
2030;DHT22;1020;48.854;8.830;2023-07-08T10:15:30;42.80;99.90
2030;DHT22;1020;48.854;8.830;2023-07-08T10:17:58;42.50;99.90
2030;DHT22;1020;48.854;8.830;2023-07-08T10:20:35;42.10;99.60
2030;DHT22;1020;48.854;8.830;2023-07-08T10:23:11;42.10;99.90
2030;DHT22;1020;48.854;8.830;2023-07-08T10:25:49;42.00;99.30
2030;DHT22;1020;48.854;8.830;2023-07-08T10:28:31;42.50;99.20
2030;DHT22;1020;48.854;8.830;2023-07-08T10:31:07;43.10;98.40
2030;DHT22;1020;48.854;8.830;2023-07-08T10:33:55;42.90;96.50
2030;DHT22;1020;48.854;8.830;2023-07-08T10:36:33;41.90;95.60
2030;DHT22;1020;48.854;8.830;2023-07-08T10:39:32;41.20;94.60
2030;DHT22;1020;48.854;8.830;2023-07-08T10:42:08;40.60;94.00
2030;DHT22;1020;48.854;8.830;2023-07-08T10:44:45;39.70;93.00
2030;DHT22;1020;48.854;8.830;2023-07-08T10:47:31;40.10;95.40
2030;DHT22;1020;48.854;8.830;2023-07-08T10:50:12;40.90;96.50
2030;DHT22;1020;48.854;8.830;2023-07-08T10:52:51;41.70;97.00
2030;DHT22;1020;48.854;8.830;2023-07-08T10:55:30;41.80;95.90
2030;DHT22;1020;48.854;8.830;2023-07-08T10:58:20;41.30;95.20
2030;DHT22;1020;48.854;8.830;2023-07-08T11:00:56;41.20;95.30
2030;DHT22;1020;48.854;8.830;2023-07-08T11:03:58;41.00;94.80
2030;DHT22;1020;48.854;8.830;2023-07-08T11:06:39;40.70;93.30
2030;DHT22;1020;48.854;8.830;2023-07-08T11:09:12;41.40;94.50
2030;DHT22;1020;48.854;8.830;2023-07-08T11:11:43;41.10;93.90
2030;DHT22;1020;48.854;8.830;2023-07-08T11:14:15;40.30;93.30
2030;DHT22;1020;48.854;8.830;2023-07-08T11:16:47;38.30;91.80
2030;DHT22;1020;48.854;8.830;2023-07-08T11:19:19;37.40;94.80
2030;DHT22;1020;48.854;8.830;2023-07-08T11:21:47;37.20;94.40
2030;DHT22;1020;48.854;8.830;2023-07-08T11:24:22;37.10;94.90
2030;DHT22;1020;48.854;8.830;2023-07-08T11:26:55;36.90;96.80
2030;DHT22;1020;48.854;8.830;2023-07-08T11:29:26;37.20;98.40
2030;DHT22;1020;48.854;8.830;2023-07-08T11:31:57;37.20;99.60
2030;DHT22;1020;48.854;8.830;2023-07-08T11:34:24;38.00;99.90
2030;DHT22;1020;48.854;8.830;2023-07-08T11:36:54;38.90;99.90
2030;DHT22;1020;48.854;8.830;2023-07-08T11:39:32;39.20;99.90
2030;DHT22;1020;48.854;8.830;2023-07-08T11:42:15;38.40;99.90
2030;DHT22;1020;48.854;8.830;2023-07-08T11:44:46;38.10;99.90
2030;DHT22;1020;48.854;8.830;2023-07-08T11:47:19;38.80;99.90
2030;DHT22;1020;48.854;8.830;2023-07-08T11:49:47;39.60;99.90
2030;DHT22;1020;48.854;8.830;2023-07-08T11:52:19;40.50;99.90
2030;DHT22;1020;48.854;8.830;2023-07-08T11:54:48;41.30;99.90
2030;DHT22;1020;48.854;8.830;2023-07-08T11:57:25;41.30;99.90
2030;DHT22;1020;48.854;8.830;2023-07-08T12:00:12;41.40;99.40
2030;DHT22;1020;48.854;8.830;2023-07-08T12:03:04;42.20;98.40
2030;DHT22;1020;48.854;8.830;2023-07-08T12:05:51;43.20;92.10
2030;DHT22;1020;48.854;8.830;2023-07-08T12:08:19;43.90;95.30
2030;DHT22;1020;48.854;8.830;2023-07-08T12:10:49;43.50;91.80
2030;DHT22;1020;48.854;8.830;2023-07-08T12:13:19;41.80;86.50
2030;DHT22;1020;48.854;8.830;2023-07-08T12:15:46;42.50;90.00
2030;DHT22;1020;48.854;8.830;2023-07-08T12:18:15;41.70;85.50
2030;DHT22;1020;48.854;8.830;2023-07-08T12:20:45;40.80;93.40
2030;DHT22;1020;48.854;8.830;2023-07-08T12:23:19;40.50;84.20
2030;DHT22;1020;48.854;8.830;2023-07-08T12:25:47;41.60;87.60
2030;DHT22;1020;48.854;8.830;2023-07-08T12:28:15;39.60;79.20
2030;DHT22;1020;48.854;8.830;2023-07-08T12:30:43;39.10;81.10
2030;DHT22;1020;48.854;8.830;2023-07-08T12:33:12;39.90;86.60
2030;DHT22;1020;48.854;8.830;2023-07-08T12:35:40;41.10;89.00
2030;DHT22;1020;48.854;8.830;2023-07-08T12:38:20;41.80;88.60
2030;DHT22;1020;48.854;8.830;2023-07-08T12:40:48;42.40;87.50
2030;DHT22;1020;48.854;8.830;2023-07-08T12:43:15;42.20;83.60
2030;DHT22;1020;48.854;8.830;2023-07-08T12:45:43;42.10;82.70
2030;DHT22;1020;48.854;8.830;2023-07-08T12:48:09;40.50;76.70
2030;DHT22;1020;48.854;8.830;2023-07-08T12:50:36;38.60;73.00
2030;DHT22;1020;48.854;8.830;2023-07-08T12:53:05;38.40;77.50
2030;DHT22;1020;48.854;8.830;2023-07-08T12:55:37;38.60;80.30
2030;DHT22;1020;48.854;8.830;2023-07-08T12:58:04;39.10;83.80
2030;DHT22;1020;48.854;8.830;2023-07-08T13:00:33;39.60;84.60
2030;DHT22;1020;48.854;8.830;2023-07-08T13:03:06;40.80;88.80
2030;DHT22;1020;48.854;8.830;2023-07-08T13:05:33;41.60;86.20
2030;DHT22;1020;48.854;8.830;2023-07-08T13:08:00;39.80;80.60
2030;DHT22;1020;48.854;8.830;2023-07-08T13:10:29;39.70;82.80
2030;DHT22;1020;48.854;8.830;2023-07-08T13:12:59;39.90;83.10
2030;DHT22;1020;48.854;8.830;2023-07-08T13:15:29;40.10;82.60
2030;DHT22;1020;48.854;8.830;2023-07-08T13:17:58;40.40;86.00
2030;DHT22;1020;48.854;8.830;2023-07-08T13:20:25;41.00;86.00
2030;DHT22;1020;48.854;8.830;2023-07-08T13:22:55;40.90;84.30
2030;DHT22;1020;48.854;8.830;2023-07-08T13:25:27;40.90;81.40
2030;DHT22;1020;48.854;8.830;2023-07-08T13:27:57;40.90;82.10
2030;DHT22;1020;48.854;8.830;2023-07-08T13:30:26;39.50;76.70
2030;DHT22;1020;48.854;8.830;2023-07-08T13:32:53;39.30;77.70
2030;DHT22;1020;48.854;8.830;2023-07-08T13:35:26;39.00;78.90
2030;DHT22;1020;48.854;8.830;2023-07-08T13:37:55;39.50;81.00
2030;DHT22;1020;48.854;8.830;2023-07-08T13:40:22;39.40;81.10
2030;DHT22;1020;48.854;8.830;2023-07-08T13:42:50;39.80;83.20
2030;DHT22;1020;48.854;8.830;2023-07-08T13:45:23;40.40;84.90
2030;DHT22;1020;48.854;8.830;2023-07-08T13:48:12;40.60;81.80
2030;DHT22;1020;48.854;8.830;2023-07-08T13:50:46;41.00;92.30
2030;DHT22;1020;48.854;8.830;2023-07-08T13:53:20;40.90;79.40
2030;DHT22;1020;48.854;8.830;2023-07-08T13:55:48;39.50;75.10
2030;DHT22;1020;48.854;8.830;2023-07-08T13:58:16;38.80;74.40
2030;DHT22;1020;48.854;8.830;2023-07-08T14:00:45;37.80;70.90
2030;DHT22;1020;48.854;8.830;2023-07-08T14:03:14;36.90;70.50
2030;DHT22;1020;48.854;8.830;2023-07-08T14:05:44;37.80;78.30
2030;DHT22;1020;48.854;8.830;2023-07-08T14:08:13;37.80;79.20
2030;DHT22;1020;48.854;8.830;2023-07-08T14:10:41;38.20;81.60
2030;DHT22;1020;48.854;8.830;2023-07-08T14:13:09;38.90;85.10
2030;DHT22;1020;48.854;8.830;2023-07-08T14:15:37;39.40;84.90
2030;DHT22;1020;48.854;8.830;2023-07-08T14:18:07;38.70;80.30
2030;DHT22;1020;48.854;8.830;2023-07-08T14:20:35;38.60;79.80
2030;DHT22;1020;48.854;8.830;2023-07-08T14:23:01;38.80;81.70
2030;DHT22;1020;48.854;8.830;2023-07-08T14:25:28;39.30;82.80
2030;DHT22;1020;48.854;8.830;2023-07-08T14:27:55;39.90;83.80
2030;DHT22;1020;48.854;8.830;2023-07-08T14:30:22;40.40;83.90
2030;DHT22;1020;48.854;8.830;2023-07-08T14:32:49;41.00;83.80
2030;DHT22;1020;48.854;8.830;2023-07-08T14:35:20;40.30;76.30
2030;DHT22;1020;48.854;8.830;2023-07-08T14:37:49;40.10;76.50
2030;DHT22;1020;48.854;8.830;2023-07-08T14:40:21;39.70;75.00
2030;DHT22;1020;48.854;8.830;2023-07-08T14:42:59;38.80;73.00
2030;DHT22;1020;48.854;8.830;2023-07-08T14:45:28;39.40;90.30
2030;DHT22;1020;48.854;8.830;2023-07-08T14:47:55;39.60;77.90
2030;DHT22;1020;48.854;8.830;2023-07-08T14:50:24;39.70;77.00
2030;DHT22;1020;48.854;8.830;2023-07-08T14:52:54;39.60;75.10
2030;DHT22;1020;48.854;8.830;2023-07-08T14:55:21;39.50;74.70
2030;DHT22;1020;48.854;8.830;2023-07-08T14:57:48;39.40;73.80
2030;DHT22;1020;48.854;8.830;2023-07-08T15:00:17;39.50;73.20
2030;DHT22;1020;48.854;8.830;2023-07-08T15:02:47;38.40;70.30
2030;DHT22;1020;48.854;8.830;2023-07-08T15:05:17;38.00;69.60
2030;DHT22;1020;48.854;8.830;2023-07-08T15:07:48;37.80;70.60
2030;DHT22;1020;48.854;8.830;2023-07-08T15:10:15;37.60;72.20
2030;DHT22;1020;48.854;8.830;2023-07-08T15:12:42;36.20;67.10
2030;DHT22;1020;48.854;8.830;2023-07-08T15:15:15;36.40;73.10
2030;DHT22;1020;48.854;8.830;2023-07-08T15:17:42;36.70;76.90
2030;DHT22;1020;48.854;8.830;2023-07-08T15:20:14;37.00;79.30
2030;DHT22;1020;48.854;8.830;2023-07-08T15:22:42;37.00;81.60
2030;DHT22;1020;48.854;8.830;2023-07-08T15:25:12;37.30;83.50
2030;DHT22;1020;48.854;8.830;2023-07-08T15:27:40;37.60;86.60
2030;DHT22;1020;48.854;8.830;2023-07-08T15:30:16;38.00;87.30
2030;DHT22;1020;48.854;8.830;2023-07-08T15:32:44;38.40;87.70
2030;DHT22;1020;48.854;8.830;2023-07-08T15:35:13;38.70;87.20
2030;DHT22;1020;48.854;8.830;2023-07-08T15:37:41;38.70;86.40
2030;DHT22;1020;48.854;8.830;2023-07-08T15:40:08;38.70;86.30
2030;DHT22;1020;48.854;8.830;2023-07-08T15:42:38;38.90;87.20
2030;DHT22;1020;48.854;8.830;2023-07-08T15:45:13;38.90;86.30
2030;DHT22;1020;48.854;8.830;2023-07-08T15:47:40;38.70;83.80
2030;DHT22;1020;48.854;8.830;2023-07-08T15:50:10;38.50;82.50
2030;DHT22;1020;48.854;8.830;2023-07-08T15:52:37;38.60;83.90
2030;DHT22;1020;48.854;8.830;2023-07-08T15:55:05;38.60;81.80
2030;DHT22;1020;48.854;8.830;2023-07-08T15:57:33;38.30;79.80
2030;DHT22;1020;48.854;8.830;2023-07-08T16:00:01;37.60;77.80
2030;DHT22;1020;48.854;8.830;2023-07-08T16:02:29;37.00;76.20
2030;DHT22;1020;48.854;8.830;2023-07-08T16:04:57;36.40;74.40
2030;DHT22;1020;48.854;8.830;2023-07-08T16:07:24;35.30;70.60
2030;DHT22;1020;48.854;8.830;2023-07-08T16:09:50;34.70;71.40
2030;DHT22;1020;48.854;8.830;2023-07-08T16:12:21;35.20;78.20
2030;DHT22;1020;48.854;8.830;2023-07-08T16:14:49;35.70;83.10
2030;DHT22;1020;48.854;8.830;2023-07-08T16:17:17;36.40;87.20
2030;DHT22;1020;48.854;8.830;2023-07-08T16:19:43;36.60;87.80